createdAt,value
2023-04-22T00:01:02.414Z,13.05
2023-04-22T00:03:29.952Z,15.88
2023-04-22T00:05:57.774Z,9.50
2023-04-22T00:08:25.652Z,12.23
2023-04-22T00:10:53.000Z,11.63
2023-04-22T00:13:20.231Z,9.00
2023-04-22T00:15:47.678Z,11.10
2023-04-22T00:18:15.359Z,14.07
2023-04-22T00:20:44.279Z,11.00
2023-04-22T00:23:12.778Z,10.55
2023-04-22T00:25:40.852Z,9.52
2023-04-22T00:28:08.201Z,10.75
2023-04-22T00:30:36.295Z,9.13
2023-04-22T00:33:03.898Z,9.20
2023-04-22T00:35:31.160Z,10.45
2023-04-22T00:37:58.466Z,7.22
2023-04-22T00:40:25.654Z,13.50
2023-04-22T00:42:53.552Z,11.45
2023-04-22T00:45:21.429Z,8.13
2023-04-22T00:47:49.272Z,11.02
2023-04-22T00:50:17.034Z,12.30
2023-04-22T00:52:44.563Z,7.90
2023-04-22T00:55:12.372Z,7.57
2023-04-22T00:57:40.667Z,9.60
2023-04-22T01:00:10.221Z,10.27
2023-04-22T01:02:38.939Z,12.20
2023-04-22T01:05:10.798Z,9.55
2023-04-22T01:07:38.200Z,8.65
2023-04-22T01:10:07.507Z,9.95
2023-04-22T01:12:34.997Z,11.95
2023-04-22T01:15:05.076Z,7.32
2023-04-22T01:17:33.965Z,11.95
2023-04-22T01:20:04.064Z,8.30
2023-04-22T01:22:40.639Z,11.30
2023-04-22T01:25:10.464Z,6.90
2023-04-22T01:27:39.676Z,8.27
2023-04-22T01:30:08.550Z,7.43
2023-04-22T01:32:36.337Z,9.27
2023-04-22T01:35:04.060Z,8.18
2023-04-22T01:37:31.372Z,10.18
2023-04-22T01:39:59.402Z,10.15
2023-04-22T01:42:27.082Z,8.90
2023-04-22T01:44:54.749Z,7.65
2023-04-22T01:47:22.031Z,8.52
2023-04-22T01:49:49.402Z,8.07
2023-04-22T01:52:17.931Z,7.43
2023-04-22T01:54:45.327Z,8.07
2023-04-22T01:57:14.462Z,6.47
2023-04-22T01:59:42.092Z,7.80
2023-04-22T02:02:09.785Z,10.65
2023-04-22T02:04:37.207Z,6.28
2023-04-22T02:07:04.549Z,7.38
2023-04-22T02:09:35.727Z,10.48
2023-04-22T02:12:02.990Z,6.60
2023-04-22T02:14:30.196Z,7.28
2023-04-22T02:17:03.399Z,9.00
2023-04-22T02:19:30.837Z,7.40
2023-04-22T02:21:58.580Z,9.40
2023-04-22T02:24:25.852Z,7.78
2023-04-22T02:26:53.236Z,8.93
2023-04-22T02:29:20.708Z,9.60
2023-04-22T02:31:48.068Z,7.18
2023-04-22T02:34:15.487Z,7.75
2023-04-22T02:36:42.639Z,7.15
2023-04-22T02:39:10.584Z,9.52
2023-04-22T02:41:38.405Z,8.05
2023-04-22T02:44:06.567Z,8.48
2023-04-22T02:46:34.797Z,8.05
2023-04-22T02:49:02.153Z,8.77
2023-04-22T02:51:29.550Z,7.00
2023-04-22T02:53:56.845Z,11.18
2023-04-22T02:56:24.172Z,6.57
2023-04-22T02:58:51.333Z,15.32
2023-04-22T03:01:18.713Z,9.95
2023-04-22T03:03:46.781Z,7.68
2023-04-22T03:06:20.042Z,8.98
2023-04-22T03:08:48.831Z,8.85
2023-04-22T03:11:16.131Z,8.70
2023-04-22T03:13:43.424Z,9.02
2023-04-22T03:16:10.852Z,9.05
2023-04-22T03:18:39.084Z,8.13
2023-04-22T03:21:07.376Z,11.60
2023-04-22T03:23:34.851Z,10.07
2023-04-22T03:26:02.180Z,13.45
2023-04-22T03:28:29.479Z,7.78
2023-04-22T03:30:56.702Z,10.45
2023-04-22T03:33:24.160Z,9.50
2023-04-22T03:35:56.245Z,12.98
2023-04-22T03:38:24.495Z,12.05
2023-04-22T03:40:52.332Z,10.25
2023-04-22T03:43:34.688Z,6.90
2023-04-22T03:46:07.651Z,10.65
2023-04-22T03:48:37.841Z,9.63
2023-04-22T03:51:10.504Z,9.77
2023-04-22T03:53:40.494Z,14.43
2023-04-22T03:56:09.084Z,9.63
2023-04-22T03:58:40.240Z,8.07
2023-04-22T04:01:09.104Z,9.90
2023-04-22T04:03:37.258Z,5.95
2023-04-22T04:06:05.850Z,11.85
2023-04-22T04:08:33.172Z,8.60
2023-04-22T04:11:01.094Z,7.47
2023-04-22T04:13:32.493Z,6.65
2023-04-22T04:16:19.453Z,7.72
2023-04-22T04:18:52.567Z,8.30
2023-04-22T04:21:22.210Z,9.70
2023-04-22T04:23:52.475Z,8.30
2023-04-22T04:26:25.242Z,8.98
2023-04-22T04:28:57.549Z,10.98
2023-04-22T04:31:25.020Z,14.95
2023-04-22T04:33:53.863Z,9.57
2023-04-22T04:36:21.170Z,8.60
2023-04-22T04:38:49.377Z,7.18
2023-04-22T04:41:16.798Z,10.80
2023-04-22T04:43:46.401Z,8.15
2023-04-22T04:46:37.993Z,11.35
2023-04-22T04:49:09.480Z,7.50
2023-04-22T04:51:45.191Z,8.57
2023-04-22T04:54:12.829Z,8.07
2023-04-22T04:56:41.298Z,10.90
2023-04-22T04:59:10.502Z,8.27
2023-04-22T05:01:39.277Z,9.95
2023-04-22T05:04:09.446Z,13.63
2023-04-22T05:09:08.210Z,5.78
2023-04-22T05:11:36.350Z,6.38
2023-04-22T05:14:10.848Z,7.68
2023-04-22T05:16:41.703Z,8.95
2023-04-22T05:19:09.906Z,13.38
2023-04-22T05:21:37.606Z,11.10
2023-04-22T05:24:05.150Z,7.55
2023-04-22T05:26:32.703Z,8.88
2023-04-22T05:29:01.726Z,7.20
2023-04-22T05:31:29.248Z,5.93
2023-04-22T05:33:57.549Z,5.40
2023-04-22T05:36:30.593Z,8.30
2023-04-22T05:38:59.302Z,5.82
2023-04-22T05:41:27.134Z,8.00
2023-04-22T05:43:56.464Z,6.75
2023-04-22T05:46:24.189Z,9.32
2023-04-22T05:48:51.649Z,5.40
2023-04-22T05:51:54.349Z,8.23
2023-04-22T05:54:25.891Z,11.50
2023-04-22T05:56:53.245Z,9.48
2023-04-22T05:59:21.789Z,6.90
2023-04-22T06:01:50.139Z,7.25
2023-04-22T06:04:20.676Z,9.20
2023-04-22T06:06:48.286Z,7.05
2023-04-22T06:09:15.637Z,6.05
2023-04-22T06:11:43.007Z,7.82
2023-04-22T06:14:10.526Z,6.93
2023-04-22T06:16:39.982Z,7.53
2023-04-22T06:19:08.069Z,9.20
2023-04-22T06:21:37.262Z,11.60
2023-04-22T06:24:06.160Z,8.40
2023-04-22T06:26:33.580Z,9.00
2023-04-22T06:29:05.291Z,8.43
2023-04-22T06:31:33.506Z,11.70
2023-04-22T06:34:00.912Z,7.75
2023-04-22T06:36:30.635Z,10.80
2023-04-22T06:39:02.690Z,10.45
2023-04-22T06:41:44.448Z,7.43
2023-04-22T06:44:31.187Z,16.98
2023-04-22T06:47:34.048Z,9.88
2023-04-22T06:50:10.788Z,12.75
2023-04-22T06:52:48.057Z,12.48
2023-04-22T06:55:15.558Z,8.35
2023-04-22T06:57:43.031Z,9.68
2023-04-22T07:00:11.113Z,10.70
2023-04-22T07:02:40.157Z,9.60
2023-04-22T07:05:08.137Z,8.88
2023-04-22T07:07:36.012Z,7.32
2023-04-22T07:10:04.457Z,10.00
2023-04-22T07:12:37.156Z,8.32
2023-04-22T07:15:04.984Z,8.57
2023-04-22T07:17:32.224Z,9.38
2023-04-22T07:19:59.592Z,8.35
2023-04-22T07:22:27.021Z,8.55
2023-04-22T07:24:54.431Z,7.07
2023-04-22T07:27:21.818Z,7.28
2023-04-22T07:29:49.319Z,9.02
2023-04-22T07:32:16.715Z,8.15
2023-04-22T07:34:43.976Z,8.68
2023-04-22T07:37:11.321Z,9.60
2023-04-22T07:39:38.972Z,10.40
2023-04-22T07:42:07.373Z,10.57
2023-04-22T07:44:35.449Z,10.23
2023-04-22T07:47:03.917Z,10.65
2023-04-22T07:49:31.184Z,23.50
2023-04-22T07:51:58.947Z,17.88
2023-04-22T07:54:26.267Z,19.55
2023-04-22T07:56:53.585Z,22.13
2023-04-22T07:59:20.916Z,20.08
2023-04-22T08:01:48.178Z,54.47
2023-04-22T08:04:15.728Z,20.60
2023-04-22T08:06:43.475Z,18.80
2023-04-22T08:09:10.792Z,28.73
2023-04-22T08:11:38.028Z,27.65
2023-04-22T08:14:05.444Z,25.33
2023-04-22T08:16:32.849Z,21.95
2023-04-22T08:19:00.136Z,18.35
2023-04-22T08:21:28.395Z,12.40
2023-04-22T08:23:55.701Z,11.65
2023-04-22T08:26:23.139Z,9.35
2023-04-22T08:28:50.404Z,10.32
2023-04-22T08:31:17.793Z,8.45
2023-04-22T08:33:45.127Z,9.55
2023-04-22T08:36:12.927Z,10.25
2023-04-22T08:38:40.085Z,7.63
2023-04-22T08:41:07.501Z,11.18
2023-04-22T08:43:35.670Z,10.40
2023-04-22T08:46:02.884Z,6.15
2023-04-22T08:48:30.446Z,6.30
2023-04-22T08:50:58.639Z,8.48
2023-04-22T08:53:25.964Z,8.23
2023-04-22T08:55:56.661Z,7.25
2023-04-22T08:58:25.298Z,6.00
2023-04-22T09:00:53.122Z,11.50
2023-04-22T09:03:21.876Z,9.43
2023-04-22T09:05:52.996Z,11.85
2023-04-22T09:08:20.893Z,14.60
2023-04-22T09:10:48.546Z,8.48
2023-04-22T09:13:18.058Z,9.18
2023-04-22T09:15:46.281Z,6.53
2023-04-22T09:18:19.311Z,6.32
2023-04-22T09:20:54.572Z,8.32
2023-04-22T09:23:22.355Z,8.63
2023-04-22T09:25:50.367Z,5.43
2023-04-22T09:28:19.663Z,6.45
2023-04-22T09:33:15.720Z,5.50
2023-04-22T09:35:44.402Z,7.38
2023-04-22T09:38:12.867Z,7.20
2023-04-22T09:40:44.304Z,13.07
2023-04-22T09:43:12.148Z,7.68
2023-04-22T09:45:43.561Z,4.82
2023-04-22T09:48:18.356Z,7.60
2023-04-22T09:50:51.806Z,7.47
2023-04-22T09:53:21.809Z,6.10
2023-04-22T09:55:54.514Z,7.50
2023-04-22T09:58:27.735Z,6.78
2023-04-22T10:00:59.120Z,5.03
2023-04-22T10:03:26.992Z,8.25
2023-04-22T10:05:54.348Z,8.32
2023-04-22T10:08:21.603Z,6.45
2023-04-22T10:10:48.819Z,6.63
2023-04-22T10:13:16.452Z,6.60
2023-04-22T10:15:52.430Z,6.30
2023-04-22T10:18:25.094Z,5.90
2023-04-22T10:20:54.345Z,6.63
2023-04-22T10:25:55.603Z,7.28
2023-04-22T10:28:27.591Z,11.50
2023-04-22T10:30:55.157Z,6.03
2023-04-22T10:33:27.407Z,8.82
2023-04-22T10:36:14.851Z,8.93
2023-04-22T10:39:03.500Z,5.90
2023-04-22T10:41:34.786Z,8.27
2023-04-22T10:44:09.271Z,8.00
2023-04-22T10:46:45.603Z,8.50
2023-04-22T10:49:18.240Z,7.85
2023-04-22T10:51:51.335Z,5.70
2023-04-22T10:54:30.582Z,6.65
2023-04-22T10:57:22.480Z,9.57
2023-04-22T10:59:54.121Z,5.93
2023-04-22T11:02:23.793Z,9.10
2023-04-22T11:04:55.143Z,6.57
2023-04-22T11:07:27.979Z,5.95
2023-04-22T11:10:35.704Z,6.32
2023-04-22T11:13:03.614Z,7.57
2023-04-22T11:15:31.610Z,8.45
2023-04-22T11:17:59.533Z,6.72
2023-04-22T11:20:31.277Z,10.82
2023-04-22T11:22:59.152Z,7.72
2023-04-22T11:25:27.256Z,6.05
2023-04-22T11:27:57.444Z,6.68
2023-04-22T11:30:27.042Z,7.00
2023-04-22T11:32:59.977Z,7.95
2023-04-22T11:35:34.043Z,8.15
2023-04-22T11:38:06.520Z,7.35
2023-04-22T11:40:38.951Z,6.88
2023-04-22T11:43:09.403Z,6.15
2023-04-22T11:45:38.992Z,8.55
2023-04-22T11:48:09.716Z,7.10
2023-04-22T11:50:44.118Z,8.85
2023-04-22T11:53:24.302Z,7.60
2023-04-22T11:55:52.366Z,7.60
2023-04-22T11:58:28.260Z,10.25
2023-04-22T12:00:58.748Z,8.10
2023-04-22T12:03:29.198Z,8.65
2023-04-22T12:06:04.709Z,8.00
2023-04-22T12:08:36.945Z,8.13
2023-04-22T12:11:07.603Z,9.18
2023-04-22T12:13:48.147Z,7.65
2023-04-22T12:16:20.188Z,6.68
2023-04-22T12:18:55.663Z,8.20
2023-04-22T12:21:28.529Z,7.80
2023-04-22T12:24:00.830Z,9.25
2023-04-22T12:26:28.285Z,9.88
2023-04-22T12:29:00.672Z,7.68
2023-04-22T12:31:28.773Z,7.95
2023-04-22T12:33:56.743Z,9.85
2023-04-22T12:36:25.188Z,7.85
2023-04-22T12:38:52.815Z,12.48
2023-04-22T12:41:20.298Z,7.53
2023-04-22T12:43:47.782Z,7.18
2023-04-22T12:46:15.182Z,7.18
2023-04-22T12:48:42.982Z,8.00
2023-04-22T12:51:10.488Z,9.25
2023-04-22T12:53:37.831Z,8.43
2023-04-22T12:56:05.456Z,6.72
2023-04-22T12:58:32.719Z,6.97
2023-04-22T13:00:59.989Z,6.13
2023-04-22T13:03:27.669Z,10.02
2023-04-22T13:05:55.701Z,6.53
2023-04-22T13:08:23.022Z,6.68
2023-04-22T13:10:50.503Z,10.82
2023-04-22T13:13:19.267Z,5.88
2023-04-22T13:15:53.328Z,8.90
2023-04-22T13:18:23.215Z,9.23
2023-04-22T13:20:51.340Z,5.87
2023-04-22T13:23:21.622Z,8.88
2023-04-22T13:25:50.510Z,8.27
2023-04-22T13:28:17.913Z,11.25
2023-04-22T13:30:45.489Z,10.38
2023-04-22T13:33:12.855Z,10.77
2023-04-22T13:35:40.126Z,8.65
2023-04-22T13:38:07.446Z,6.53
2023-04-22T13:40:35.107Z,9.63
2023-04-22T13:43:02.394Z,6.70
2023-04-22T13:45:29.837Z,5.43
2023-04-22T13:47:57.193Z,8.48
2023-04-22T13:50:24.478Z,6.78
2023-04-22T13:52:51.872Z,6.55
2023-04-22T13:55:19.161Z,8.13
2023-04-22T13:57:46.513Z,6.63
2023-04-22T14:00:14.522Z,8.43
2023-04-22T14:02:41.934Z,9.15
2023-04-22T14:05:10.658Z,4.90
2023-04-22T14:07:38.063Z,6.40
2023-04-22T14:10:08.385Z,8.57
2023-04-22T14:12:35.777Z,7.40
2023-04-22T14:15:03.362Z,4.90
2023-04-22T14:17:30.675Z,5.35
2023-04-22T14:19:58.024Z,5.85
2023-04-22T14:22:25.295Z,9.13
2023-04-22T14:24:52.518Z,9.40
2023-04-22T14:27:19.751Z,5.03
2023-04-22T14:29:47.041Z,9.52
2023-04-22T14:32:14.216Z,9.60
2023-04-22T14:34:41.342Z,9.35
2023-04-22T14:37:08.549Z,5.10
2023-04-22T14:39:35.968Z,7.15
2023-04-22T14:42:04.766Z,7.38
2023-04-22T14:44:32.202Z,10.05
2023-04-22T14:46:59.410Z,6.80
2023-04-22T14:49:26.653Z,9.65
2023-04-22T14:51:54.037Z,7.28
2023-04-22T14:54:21.457Z,6.68
2023-04-22T14:56:48.683Z,9.23
2023-04-22T14:59:16.014Z,7.78
2023-04-22T15:01:43.361Z,9.05
2023-04-22T15:04:13.664Z,9.15
2023-04-22T15:06:41.477Z,10.80
2023-04-22T15:09:08.636Z,7.15
2023-04-22T15:11:35.813Z,6.47
2023-04-22T15:14:03.196Z,7.38
2023-04-22T15:16:30.748Z,6.88
2023-04-22T15:18:58.031Z,5.18
2023-04-22T15:21:25.230Z,8.30
2023-04-22T15:23:52.503Z,8.85
2023-04-22T15:26:19.815Z,7.07
2023-04-22T15:28:47.152Z,6.65
2023-04-22T15:31:14.431Z,7.13
2023-04-22T15:33:41.644Z,12.43
2023-04-22T15:36:09.785Z,7.35
2023-04-22T15:38:38.690Z,5.55
2023-04-22T15:41:06.099Z,6.63
2023-04-22T15:43:33.831Z,9.93
2023-04-22T15:46:01.778Z,7.05
2023-04-22T15:48:29.030Z,5.90
2023-04-22T15:50:56.334Z,8.35
2023-04-22T15:53:23.633Z,6.63
2023-04-22T15:55:51.649Z,6.20
2023-04-22T15:58:19.074Z,8.93
2023-04-22T16:00:46.760Z,8.25
2023-04-22T16:03:14.579Z,6.40
2023-04-22T16:05:42.074Z,7.78
2023-04-22T16:08:09.354Z,7.78
2023-04-22T16:10:36.656Z,7.10
2023-04-22T16:13:03.940Z,10.38
2023-04-22T16:15:31.509Z,11.68
2023-04-22T16:17:59.001Z,8.52
2023-04-22T16:20:26.352Z,8.85
2023-04-22T16:22:53.540Z,9.00
2023-04-22T16:25:21.098Z,8.60
2023-04-22T16:27:48.476Z,6.78
2023-04-22T16:30:16.361Z,9.23
2023-04-22T16:32:43.855Z,7.45
2023-04-22T16:35:11.504Z,4.68
2023-04-22T16:37:38.776Z,5.82
2023-04-22T16:40:07.964Z,7.75
2023-04-22T16:42:35.918Z,7.57
2023-04-22T16:45:03.491Z,7.75
2023-04-22T16:47:30.764Z,7.78
2023-04-22T16:49:58.284Z,7.22
2023-04-22T16:52:25.634Z,8.73
2023-04-22T16:54:52.947Z,6.50
2023-04-22T16:57:20.270Z,9.48
2023-04-22T16:59:47.551Z,7.22
2023-04-22T17:02:15.060Z,4.57
2023-04-22T17:04:42.384Z,9.00
2023-04-22T17:07:09.666Z,5.22
2023-04-22T17:09:36.888Z,10.82
2023-04-22T17:12:04.421Z,8.02
2023-04-22T17:14:31.923Z,14.52
2023-04-22T17:16:59.341Z,45.55
2023-04-22T17:19:27.250Z,13.50
2023-04-22T17:21:54.633Z,20.90
2023-04-22T17:24:22.525Z,14.07
2023-04-22T17:26:49.939Z,33.00
2023-04-22T17:29:21.494Z,21.70
2023-04-22T17:31:50.041Z,16.38
2023-04-22T17:34:17.603Z,14.73
2023-04-22T17:36:44.910Z,15.02
2023-04-22T17:39:12.250Z,19.15
2023-04-22T17:41:39.511Z,15.95
2023-04-22T17:44:08.876Z,20.73
2023-04-22T17:46:36.170Z,11.93
2023-04-22T17:49:03.608Z,13.13
2023-04-22T17:51:31.596Z,15.23
2023-04-22T17:54:00.859Z,12.07
2023-04-22T17:56:28.217Z,19.20
2023-04-22T17:58:55.468Z,18.33
2023-04-22T18:01:22.812Z,13.93
2023-04-22T18:03:50.144Z,11.35
2023-04-22T18:06:17.588Z,12.45
2023-04-22T18:08:44.909Z,5.40
2023-04-22T18:11:12.273Z,7.70
2023-04-22T18:13:39.676Z,6.38
2023-04-22T18:16:07.150Z,9.90
2023-04-22T18:18:35.497Z,5.70
2023-04-22T18:21:02.920Z,6.68
2023-04-22T18:23:30.587Z,5.25
2023-04-22T18:25:57.835Z,10.80
2023-04-22T18:28:25.197Z,12.07
2023-04-22T18:30:52.908Z,14.70
2023-04-22T18:33:20.152Z,13.82
2023-04-22T18:35:47.504Z,17.45
2023-04-22T18:38:14.754Z,14.50
2023-04-22T18:40:42.539Z,13.20
2023-04-22T18:43:09.945Z,14.70
2023-04-22T18:45:37.177Z,16.25
2023-04-22T18:48:04.661Z,15.65
2023-04-22T18:50:31.925Z,15.95
2023-04-22T18:52:59.144Z,15.40
2023-04-22T18:55:26.466Z,12.00
2023-04-22T18:57:53.990Z,13.18
2023-04-22T19:00:21.531Z,10.38
2023-04-22T19:02:49.032Z,11.77
2023-04-22T19:05:18.138Z,13.85
2023-04-22T19:07:45.480Z,13.68
2023-04-22T19:10:12.818Z,10.82
2023-04-22T19:12:40.210Z,9.55
2023-04-22T19:15:08.539Z,13.40
2023-04-22T19:17:36.031Z,9.55
2023-04-22T19:20:05.318Z,9.88
2023-04-22T19:22:32.752Z,12.20
2023-04-22T19:25:01.136Z,10.20
2023-04-22T19:27:28.619Z,11.77
2023-04-22T19:29:55.933Z,10.25
2023-04-22T19:32:23.280Z,8.52
2023-04-22T19:34:50.571Z,13.38
2023-04-22T19:37:18.236Z,11.52
2023-04-22T19:39:45.635Z,11.90
2023-04-22T19:42:12.983Z,10.70
2023-04-22T19:45:09.239Z,14.38
2023-04-22T19:47:38.180Z,14.35
2023-04-22T19:50:08.417Z,11.38
2023-04-22T19:52:36.528Z,12.68
2023-04-22T19:55:09.263Z,12.93
2023-04-22T19:57:38.858Z,10.82
2023-04-22T20:00:07.781Z,12.63
2023-04-22T20:03:07.973Z,26.30
2023-04-22T20:05:37.201Z,27.42
2023-04-22T20:08:07.113Z,22.58
2023-04-22T20:10:34.690Z,25.77
2023-04-22T20:13:04.486Z,27.13
2023-04-22T20:15:33.196Z,19.43
2023-04-22T20:18:00.884Z,23.52
2023-04-22T20:20:29.012Z,20.50
2023-04-22T20:23:00.761Z,18.17
2023-04-22T20:25:28.908Z,19.52
2023-04-22T20:27:57.117Z,18.40
2023-04-22T20:30:24.579Z,11.65
2023-04-22T20:32:52.287Z,15.00
2023-04-22T20:35:20.633Z,13.52
2023-04-22T20:37:48.633Z,15.80
2023-04-22T20:40:16.914Z,13.45
2023-04-22T20:42:44.218Z,18.10
2023-04-22T20:45:15.644Z,15.50
2023-04-22T20:47:43.225Z,12.32
2023-04-22T20:50:11.434Z,17.10
2023-04-22T20:52:39.134Z,12.93
2023-04-22T20:55:07.269Z,17.20
2023-04-22T20:57:34.485Z,14.65
2023-04-22T21:00:01.864Z,14.15
2023-04-22T21:02:30.942Z,12.48
2023-04-22T21:04:59.263Z,18.23
2023-04-22T21:07:30.747Z,12.10
2023-04-22T21:09:58.976Z,15.82
2023-04-22T21:12:27.345Z,13.32
2023-04-22T21:14:55.284Z,12.95
2023-04-22T21:17:29.772Z,14.82
2023-04-22T21:19:58.208Z,12.85
2023-04-22T21:22:26.165Z,13.00
2023-04-22T21:24:54.520Z,15.43
2023-04-22T21:27:22.570Z,16.02
2023-04-22T21:29:50.500Z,13.70
2023-04-22T21:32:20.332Z,11.57
2023-04-22T21:34:47.875Z,13.27
2023-04-22T21:37:15.402Z,13.85
2023-04-22T21:39:42.807Z,18.92
2023-04-22T21:42:10.120Z,11.20
2023-04-22T21:44:38.325Z,12.70
2023-04-22T21:47:06.706Z,13.13
2023-04-22T21:49:34.097Z,13.40
2023-04-22T21:52:01.454Z,14.60
2023-04-22T21:54:29.021Z,13.05
2023-04-22T21:56:57.697Z,14.40
2023-04-22T21:59:24.909Z,13.75
2023-04-22T22:01:52.676Z,16.77
2023-04-22T22:04:20.202Z,12.18
2023-04-22T22:06:48.942Z,15.02
2023-04-22T22:09:16.220Z,10.68
2023-04-22T22:11:43.486Z,16.40
2023-04-22T22:14:10.790Z,10.95
2023-04-22T22:16:38.638Z,13.10
2023-04-22T22:19:06.450Z,12.23
2023-04-22T22:21:33.639Z,13.18
2023-04-22T22:24:01.040Z,13.77
2023-04-22T22:26:29.213Z,14.55
2023-04-22T22:28:56.620Z,10.88
2023-04-22T22:31:23.885Z,15.45
2023-04-22T22:33:51.166Z,17.27
2023-04-22T22:36:19.096Z,13.75
2023-04-22T22:38:46.476Z,13.13
2023-04-22T22:41:14.201Z,12.48
2023-04-22T22:43:41.509Z,11.82
2023-04-22T22:46:09.081Z,12.25
2023-04-22T22:48:36.968Z,13.40
2023-04-22T22:51:04.363Z,14.98
2023-04-22T22:53:33.188Z,11.13
2023-04-22T22:56:00.585Z,15.77
2023-04-22T22:58:27.850Z,11.35
2023-04-22T23:00:55.119Z,13.02
2023-04-22T23:03:23.274Z,13.90
2023-04-22T23:05:50.657Z,15.10
2023-04-22T23:08:18.068Z,12.73
2023-04-22T23:10:45.317Z,12.05
2023-04-22T23:13:12.516Z,16.15
2023-04-22T23:15:39.975Z,13.95
2023-04-22T23:18:09.064Z,13.73
2023-04-22T23:20:37.268Z,16.58
2023-04-22T23:23:05.812Z,14.45
2023-04-22T23:25:33.413Z,15.48
2023-04-22T23:28:01.633Z,13.23
2023-04-22T23:30:29.459Z,12.55
2023-04-22T23:33:02.168Z,11.95
2023-04-22T23:35:34.558Z,14.55
2023-04-22T23:38:04.050Z,14.82
2023-04-22T23:40:31.520Z,13.52
2023-04-22T23:42:58.776Z,14.13
2023-04-22T23:45:26.106Z,14.15
2023-04-22T23:47:53.465Z,14.73
2023-04-22T23:50:20.857Z,13.13
2023-04-22T23:52:48.072Z,18.25
2023-04-22T23:55:16.133Z,12.73
2023-04-22T23:57:43.863Z,15.10
